createdAt,value
2018-02-13T00:00:02.025Z,1.80
2018-02-13T00:01:02.013Z,1.50
2018-02-13T00:02:02.011Z,1.80
2018-02-13T00:03:02.009Z,1.70
2018-02-13T00:04:02.007Z,1.50
2018-02-13T00:05:02.006Z,1.30
2018-02-13T00:06:02.007Z,2.10
2018-02-13T00:07:02.006Z,3.00
2018-02-13T00:08:01.995Z,1.50
2018-02-13T00:09:01.994Z,1.70
2018-02-13T00:10:02.007Z,4.00
2018-02-13T00:11:01.993Z,1.40
2018-02-13T00:12:01.986Z,1.50
2018-02-13T00:13:01.984Z,1.40
2018-02-13T00:14:01.981Z,1.30
2018-02-13T00:15:01.977Z,1.50
2018-02-13T00:16:01.980Z,2.70
2018-02-13T00:17:01.972Z,1.60
2018-02-13T00:18:01.969Z,1.40
2018-02-13T00:19:01.968Z,2.20
2018-02-13T00:20:02.022Z,1.70
2018-02-13T00:21:01.961Z,1.40
2018-02-13T00:22:01.960Z,2.20
2018-02-13T00:23:01.956Z,1.80
2018-02-13T00:24:01.953Z,2.50
2018-02-13T00:25:01.951Z,2.10
2018-02-13T00:26:01.954Z,1.30
2018-02-13T00:27:01.950Z,1.90
2018-02-13T00:28:01.944Z,1.60
2018-02-13T00:29:01.939Z,1.40
2018-02-13T00:30:01.943Z,1.40
2018-02-13T00:31:01.939Z,1.60
2018-02-13T00:32:01.937Z,1.30
2018-02-13T00:33:01.934Z,1.90
2018-02-13T00:34:01.933Z,1.60
2018-02-13T00:35:01.925Z,1.70
2018-02-13T00:36:01.926Z,1.50
2018-02-13T00:37:01.924Z,1.60
2018-02-13T00:38:01.922Z,1.50
2018-02-13T00:39:01.917Z,1.30
2018-02-13T00:40:01.914Z,1.50
2018-02-13T00:41:01.912Z,3.50
2018-02-13T00:42:01.909Z,2.50
2018-02-13T00:43:01.910Z,2.00
2018-02-13T00:44:01.903Z,1.40
2018-02-13T00:45:01.901Z,2.50
2018-02-13T00:46:01.894Z,1.30
2018-02-13T00:47:01.890Z,1.90
2018-02-13T00:48:01.888Z,1.20
2018-02-13T00:49:01.886Z,1.70
2018-02-13T00:50:01.890Z,1.40
2018-02-13T00:51:01.879Z,1.60
2018-02-13T00:52:01.883Z,1.40
2018-02-13T00:53:01.876Z,2.30
2018-02-13T00:54:01.874Z,1.80
2018-02-13T00:55:01.869Z,1.80
2018-02-13T00:56:01.866Z,2.40
2018-02-13T00:57:01.863Z,1.30
2018-02-13T00:58:01.866Z,2.60
2018-02-13T00:59:01.856Z,1.60
2018-02-13T01:00:01.858Z,1.40
2018-02-13T01:01:01.850Z,1.70
2018-02-13T01:02:01.856Z,1.60
2018-02-13T01:03:01.846Z,1.40
2018-02-13T01:04:01.851Z,1.40
2018-02-13T01:05:01.841Z,1.70
2018-02-13T01:06:01.842Z,2.10
2018-02-13T01:07:01.834Z,2.70
2018-02-13T01:08:01.832Z,2.50
2018-02-13T01:09:01.835Z,1.70
2018-02-13T01:10:01.827Z,2.10
2018-02-13T01:11:01.827Z,1.40
2018-02-13T01:12:01.820Z,1.50
2018-02-13T01:13:01.818Z,1.80
2018-02-13T01:14:01.814Z,2.00
2018-02-13T01:15:01.814Z,1.30
2018-02-13T01:16:01.815Z,2.10
2018-02-13T01:17:01.815Z,1.40
2018-02-13T01:18:01.805Z,1.40
2018-02-13T01:19:01.802Z,1.70
2018-02-13T01:20:01.803Z,2.10
2018-02-13T01:21:01.795Z,2.60
2018-02-13T01:22:01.798Z,1.90
2018-02-13T01:23:01.796Z,2.00
2018-02-13T01:24:01.788Z,4.20
2018-02-13T01:25:01.840Z,2.10
2018-02-13T01:26:01.787Z,3.20
2018-02-13T01:27:01.784Z,1.70
2018-02-13T01:28:01.783Z,1.60
2018-02-13T01:29:01.777Z,1.80
2018-02-13T01:30:01.778Z,2.20
2018-02-13T01:31:01.768Z,1.70
2018-02-13T01:32:01.764Z,1.90
2018-02-13T01:33:01.764Z,2.80
2018-02-13T01:34:01.766Z,2.20
2018-02-13T01:35:01.756Z,1.90
2018-02-13T01:36:01.757Z,1.50
2018-02-13T01:37:01.751Z,1.90
2018-02-13T01:38:01.752Z,2.40
2018-02-13T01:39:01.745Z,1.60
2018-02-13T01:40:01.748Z,1.80
2018-02-13T01:41:01.744Z,1.90
2018-02-13T01:42:01.740Z,1.60
2018-02-13T01:43:01.737Z,1.40
2018-02-13T01:44:01.729Z,1.30
2018-02-13T01:45:01.730Z,2.70
2018-02-13T01:46:01.725Z,1.40
2018-02-13T01:47:01.720Z,1.80
2018-02-13T01:48:01.724Z,1.80
2018-02-13T01:49:01.715Z,2.00
2018-02-13T01:50:01.718Z,3.40
2018-02-13T01:51:01.715Z,2.00
2018-02-13T01:52:01.705Z,2.50
2018-02-13T01:53:01.709Z,3.70
2018-02-13T01:54:01.701Z,3.00
2018-02-13T01:55:01.695Z,3.30
2018-02-13T01:56:01.698Z,2.60
2018-02-13T01:57:01.696Z,3.40
2018-02-13T01:58:01.690Z,3.00
2018-02-13T01:59:01.689Z,2.90
2018-02-13T02:00:01.682Z,1.70
2018-02-13T02:01:01.685Z,2.70
2018-02-13T02:02:01.680Z,2.40
2018-02-13T02:03:01.676Z,3.70
2018-02-13T02:04:01.675Z,3.30
2018-02-13T02:05:01.672Z,2.80
2018-02-13T02:06:01.667Z,2.00
2018-02-13T02:07:01.670Z,3.00
2018-02-13T02:08:01.656Z,5.60
2018-02-13T02:09:01.659Z,2.20
2018-02-13T02:10:01.656Z,2.90
2018-02-13T02:11:01.652Z,1.70
2018-02-13T02:12:01.648Z,2.00
2018-02-13T02:13:01.696Z,1.20
2018-02-13T02:14:01.644Z,1.20
2018-02-13T02:15:01.632Z,2.40
2018-02-13T02:16:01.633Z,1.40
2018-02-13T02:17:01.633Z,1.30
2018-02-13T02:18:01.629Z,2.00
2018-02-13T02:19:01.621Z,2.30
2018-02-13T02:20:01.618Z,2.30
2018-02-13T02:21:01.615Z,1.50
2018-02-13T02:22:01.617Z,2.80
2018-02-13T02:23:01.614Z,2.90
2018-02-13T02:24:01.610Z,2.50
2018-02-13T02:25:01.607Z,2.50
2018-02-13T02:26:01.606Z,2.20
2018-02-13T02:27:01.600Z,1.70
2018-02-13T02:28:01.593Z,1.70
2018-02-13T02:29:01.594Z,3.60
2018-02-13T02:30:01.591Z,3.00
2018-02-13T02:31:01.586Z,1.30
2018-02-13T02:32:01.589Z,1.90
2018-02-13T02:33:01.581Z,1.60
2018-02-13T02:34:01.577Z,2.60
2018-02-13T02:35:01.572Z,1.70
2018-02-13T02:36:01.568Z,1.50
2018-02-13T02:37:01.561Z,1.60
2018-02-13T02:38:01.557Z,2.30
2018-02-13T02:39:01.559Z,2.80
2018-02-13T02:40:01.556Z,3.10
2018-02-13T02:41:01.547Z,2.80
2018-02-13T02:42:01.549Z,1.40
2018-02-13T02:43:01.538Z,2.40
2018-02-13T02:44:01.540Z,2.50
2018-02-13T02:45:01.532Z,1.80
2018-02-13T02:46:01.529Z,2.80
2018-02-13T02:47:01.530Z,1.60
2018-02-13T02:48:01.527Z,2.00
2018-02-13T02:49:01.523Z,3.20
2018-02-13T02:50:01.514Z,2.10
2018-02-13T02:51:01.515Z,2.50
2018-02-13T02:52:01.505Z,2.60
2018-02-13T02:53:01.502Z,1.30
2018-02-13T02:54:01.504Z,1.90
2018-02-13T02:55:01.500Z,2.50
2018-02-13T02:56:01.489Z,2.30
2018-02-13T02:57:01.488Z,1.50
2018-02-13T02:58:01.489Z,2.80
2018-02-13T02:59:01.484Z,1.50
2018-02-13T03:00:01.480Z,1.60
2018-02-13T03:01:01.472Z,3.00
2018-02-13T03:02:01.473Z,1.80
2018-02-13T03:03:01.468Z,1.30
2018-02-13T03:04:01.457Z,2.10
2018-02-13T03:05:01.456Z,2.20
2018-02-13T03:06:01.452Z,1.70
2018-02-13T03:07:01.445Z,1.30
2018-02-13T03:08:01.447Z,1.70
2018-02-13T03:09:01.438Z,1.70
2018-02-13T03:10:01.435Z,2.10
2018-02-13T03:11:01.436Z,2.00
2018-02-13T03:12:01.426Z,1.80
2018-02-13T03:13:01.429Z,2.60
2018-02-13T03:14:01.424Z,1.80
2018-02-13T03:15:01.414Z,2.30
2018-02-13T03:16:01.415Z,2.10
2018-02-13T03:17:01.412Z,1.40
2018-02-13T03:18:01.408Z,2.50
2018-02-13T03:19:01.402Z,1.20
2018-02-13T03:20:01.394Z,2.70
2018-02-13T03:21:01.389Z,2.20
2018-02-13T03:22:01.386Z,3.00
2018-02-13T03:23:01.387Z,1.70
2018-02-13T03:24:01.384Z,1.70
2018-02-13T03:25:01.374Z,1.90
2018-02-13T03:26:01.370Z,1.50
2018-02-13T03:27:01.371Z,1.70
2018-02-13T03:28:01.362Z,1.90
2018-02-13T03:29:01.358Z,1.60
2018-02-13T03:30:01.353Z,2.00
2018-02-13T03:31:01.356Z,1.70
2018-02-13T03:32:01.350Z,1.60
2018-02-13T03:33:01.399Z,1.20
2018-02-13T03:34:01.336Z,1.50
2018-02-13T03:35:01.340Z,1.40
2018-02-13T03:36:01.329Z,2.20
2018-02-13T03:37:01.325Z,1.20
2018-02-13T03:38:01.322Z,2.10
2018-02-13T03:39:01.316Z,1.20
2018-02-13T03:40:01.322Z,1.40
2018-02-13T03:41:01.309Z,1.50
2018-02-13T03:42:01.311Z,1.80
2018-02-13T03:43:01.307Z,2.00
2018-02-13T03:44:01.297Z,1.90
2018-02-13T03:45:01.293Z,1.30
2018-02-13T03:46:01.291Z,1.80
2018-02-13T03:47:01.286Z,2.30
2018-02-13T03:48:01.287Z,1.40
2018-02-13T03:49:01.283Z,1.50
2018-02-13T03:50:01.279Z,1.50
2018-02-13T03:51:01.275Z,1.60
2018-02-13T03:52:01.266Z,1.20
2018-02-13T03:53:01.263Z,2.30
2018-02-13T03:54:01.260Z,1.20
2018-02-13T03:55:01.254Z,1.30
2018-02-13T03:56:01.250Z,1.40
2018-02-13T03:57:01.247Z,2.20
2018-02-13T03:58:01.243Z,1.10
2018-02-13T03:59:01.240Z,1.40
2018-02-13T04:00:01.246Z,1.70
2018-02-13T04:01:01.232Z,1.50
2018-02-13T04:02:01.229Z,1.60
2018-02-13T04:03:01.229Z,1.20
2018-02-13T04:04:01.227Z,1.20
2018-02-13T04:05:01.217Z,1.50
2018-02-13T04:06:01.214Z,2.40
2018-02-13T04:07:01.215Z,1.40
2018-02-13T04:08:01.211Z,1.50
2018-02-13T04:09:01.209Z,1.20
2018-02-13T04:10:01.198Z,1.40
2018-02-13T04:11:01.195Z,1.40
2018-02-13T04:12:01.196Z,2.80
2018-02-13T04:13:01.192Z,1.20
2018-02-13T04:14:01.183Z,1.20
2018-02-13T04:15:01.181Z,2.10
2018-02-13T04:16:01.175Z,1.30
2018-02-13T04:17:01.176Z,1.40
2018-02-13T04:18:01.173Z,1.70
2018-02-13T04:19:01.170Z,1.20
2018-02-13T04:20:01.167Z,2.40
2018-02-13T04:21:01.159Z,2.10
2018-02-13T04:22:01.159Z,2.10
2018-02-13T04:23:01.155Z,2.10
2018-02-13T04:24:01.150Z,2.10
2018-02-13T04:25:01.148Z,1.70
2018-02-13T04:26:01.138Z,2.40
2018-02-13T04:27:01.141Z,1.30
2018-02-13T04:28:01.135Z,1.30
2018-02-13T04:29:01.128Z,1.40
2018-02-13T04:30:01.127Z,1.30
2018-02-13T04:31:01.119Z,1.30
2018-02-13T04:32:01.120Z,2.00
2018-02-13T04:33:01.117Z,2.00
2018-02-13T04:34:01.107Z,2.70
2018-02-13T04:35:01.108Z,1.30
2018-02-13T04:36:01.099Z,1.50
2018-02-13T04:37:01.096Z,1.40
2018-02-13T04:38:01.093Z,2.00
2018-02-13T04:39:01.088Z,1.50
2018-02-13T04:40:01.082Z,1.40
2018-02-13T04:41:01.081Z,1.50
2018-02-13T04:42:01.077Z,2.00
2018-02-13T04:43:01.071Z,1.30
2018-02-13T04:44:01.067Z,1.60
2018-02-13T04:45:01.072Z,2.00
2018-02-13T04:46:01.060Z,1.40
2018-02-13T04:47:01.057Z,1.40
2018-02-13T04:48:01.053Z,1.30
2018-02-13T04:49:01.054Z,1.50
2018-02-13T04:50:01.047Z,3.00
2018-02-13T04:51:01.046Z,2.80
2018-02-13T04:52:01.044Z,1.40
2018-02-13T04:53:01.038Z,1.30
2018-02-13T04:54:01.034Z,1.80
2018-02-13T04:55:01.032Z,1.20
2018-02-13T04:56:01.026Z,1.30
2018-02-13T04:57:01.022Z,2.30
2018-02-13T04:58:01.013Z,1.30
2018-02-13T04:59:01.014Z,2.30
2018-02-13T05:00:01.006Z,1.40
2018-02-13T05:01:01.008Z,1.40
2018-02-13T05:02:01.003Z,1.40
2018-02-13T05:03:01.005Z,1.20
2018-02-13T05:04:00.990Z,1.20
2018-02-13T05:05:00.992Z,1.10
2018-02-13T05:06:00.987Z,2.50
2018-02-13T05:07:00.981Z,2.40
2018-02-13T05:08:00.980Z,2.30
2018-02-13T05:09:00.977Z,1.30
2018-02-13T05:10:00.973Z,1.60
2018-02-13T05:11:01.026Z,4.30
2018-02-13T05:12:00.957Z,1.80
2018-02-13T05:13:00.952Z,1.20
2018-02-13T05:14:00.950Z,1.10
2018-02-13T05:15:00.951Z,1.70
2018-02-13T05:16:00.944Z,1.20
2018-02-13T05:17:00.942Z,1.70
2018-02-13T05:18:00.939Z,1.40
2018-02-13T05:19:00.928Z,1.50
2018-02-13T05:20:00.923Z,2.20
2018-02-13T05:21:00.919Z,1.30
2018-02-13T05:22:00.916Z,1.70
2018-02-13T05:23:00.917Z,1.30
2018-02-13T05:24:00.911Z,1.40
2018-02-13T05:25:00.909Z,1.90
2018-02-13T05:26:00.910Z,1.50
2018-02-13T05:27:00.900Z,1.40
2018-02-13T05:28:00.897Z,1.50
2018-02-13T05:29:00.893Z,1.90
2018-02-13T05:30:00.884Z,1.70
2018-02-13T05:31:00.878Z,1.40
2018-02-13T05:32:00.874Z,1.90
2018-02-13T05:33:00.876Z,1.20
2018-02-13T05:34:00.870Z,2.60
2018-02-13T05:35:00.867Z,1.80
2018-02-13T05:36:00.859Z,1.30
2018-02-13T05:37:00.860Z,1.60
2018-02-13T05:38:00.856Z,1.30
2018-02-13T05:39:00.850Z,1.30
2018-02-13T05:40:00.842Z,1.40
2018-02-13T05:41:00.843Z,1.50
2018-02-13T05:42:00.839Z,1.40
2018-02-13T05:43:00.832Z,2.10
2018-02-13T05:44:00.830Z,1.40
2018-02-13T05:45:00.827Z,1.20
2018-02-13T05:46:00.815Z,1.20
2018-02-13T05:47:00.811Z,2.00
2018-02-13T05:48:00.818Z,1.40
2018-02-13T05:49:00.806Z,1.30
2018-02-13T05:50:00.802Z,1.30
2018-02-13T05:51:00.801Z,1.40
2018-02-13T05:52:00.798Z,1.30
2018-02-13T05:53:00.788Z,1.80
2018-02-13T05:54:00.782Z,2.60
2018-02-13T05:55:00.777Z,1.30
2018-02-13T05:56:00.778Z,2.90
2018-02-13T05:57:00.769Z,1.50
2018-02-13T05:58:00.764Z,1.40
2018-02-13T05:59:00.765Z,1.30
2018-02-13T06:00:00.755Z,1.60
2018-02-13T06:01:00.759Z,1.60
2018-02-13T06:02:00.748Z,1.30
2018-02-13T06:03:00.749Z,1.40
2018-02-13T06:04:00.746Z,1.20
2018-02-13T06:05:00.739Z,2.70
2018-02-13T06:06:00.729Z,1.50
2018-02-13T06:07:00.733Z,2.20
2018-02-13T06:08:00.728Z,1.80
2018-02-13T06:09:00.717Z,1.60
2018-02-13T06:10:00.717Z,1.50
2018-02-13T06:11:00.708Z,1.20
2018-02-13T06:12:00.711Z,2.20
2018-02-13T06:13:00.699Z,1.30
2018-02-13T06:14:00.700Z,1.50
2018-02-13T06:15:00.696Z,1.90
2018-02-13T06:16:00.687Z,1.50
2018-02-13T06:17:00.683Z,1.40
2018-02-13T06:18:00.678Z,1.40
2018-02-13T06:19:00.674Z,1.40
2018-02-13T06:20:00.676Z,3.00
2018-02-13T06:21:00.664Z,2.10
2018-02-13T06:22:00.660Z,2.60
2018-02-13T06:23:00.661Z,2.00
2018-02-13T06:24:00.654Z,2.10
2018-02-13T06:25:00.647Z,1.40
2018-02-13T06:26:00.643Z,1.50
2018-02-13T06:27:00.647Z,2.50
2018-02-13T06:28:00.681Z,1.20
2018-02-13T06:29:00.631Z,3.10
2018-02-13T06:30:00.632Z,1.40
2018-02-13T06:31:00.627Z,2.00
2018-02-13T06:32:00.617Z,1.30
2018-02-13T06:33:00.615Z,2.00
2018-02-13T06:34:00.614Z,2.20
2018-02-13T06:35:00.613Z,1.20
2018-02-13T06:36:00.609Z,1.70
2018-02-13T06:37:00.596Z,1.50
2018-02-13T06:38:00.593Z,1.30
2018-02-13T06:39:00.588Z,1.50
2018-02-13T06:40:00.591Z,1.10
2018-02-13T06:41:00.587Z,1.20
2018-02-13T06:42:00.579Z,1.10
2018-02-13T06:43:00.575Z,1.20
2018-02-13T06:44:00.566Z,1.20
2018-02-13T06:45:00.562Z,1.40
2018-02-13T06:46:00.564Z,1.10
2018-02-13T06:47:00.559Z,1.70
2018-02-13T06:48:00.603Z,1.80
2018-02-13T06:49:00.544Z,1.20
2018-02-13T06:50:00.548Z,1.10
2018-02-13T06:51:00.535Z,1.40
2018-02-13T06:52:00.537Z,1.20
2018-02-13T06:53:00.533Z,1.40
2018-02-13T06:54:00.522Z,1.40
2018-02-13T06:55:00.523Z,2.10
2018-02-13T06:56:00.518Z,1.30
2018-02-13T06:57:00.515Z,1.80
2018-02-13T06:58:00.514Z,1.40
2018-02-13T06:59:00.501Z,1.50
2018-02-13T07:00:00.496Z,1.20
2018-02-13T07:01:00.497Z,1.80
2018-02-13T07:02:00.491Z,2.70
2018-02-13T07:03:00.481Z,1.80
2018-02-13T07:04:00.477Z,1.90
2018-02-13T07:05:00.471Z,1.30
2018-02-13T07:06:00.468Z,1.80
2018-02-13T07:07:00.463Z,2.00
2018-02-13T07:08:00.460Z,1.20
2018-02-13T07:09:00.454Z,1.10
2018-02-13T07:10:00.450Z,1.20
2018-02-13T07:11:00.449Z,1.60
2018-02-13T07:12:00.440Z,1.50
2018-02-13T07:13:00.441Z,1.70
2018-02-13T07:14:00.442Z,2.20
2018-02-13T07:15:00.432Z,1.50
2018-02-13T07:16:00.428Z,1.40
2018-02-13T07:17:00.422Z,1.50
2018-02-13T07:18:00.419Z,1.30
2018-02-13T07:19:00.415Z,2.90
2018-02-13T07:20:00.411Z,7.70
2018-02-13T07:21:00.407Z,6.40
2018-02-13T07:22:00.402Z,5.20
2018-02-13T07:23:00.391Z,3.30
2018-02-13T07:24:00.392Z,1.90
2018-02-13T07:25:00.384Z,1.90
2018-02-13T07:26:00.380Z,1.60
2018-02-13T07:27:00.373Z,1.40
2018-02-13T07:28:00.371Z,2.10
2018-02-13T07:29:00.369Z,3.20
2018-02-13T07:30:00.362Z,5.30
2018-02-13T07:31:00.360Z,6.80
2018-02-13T07:32:00.354Z,7.70
2018-02-13T07:33:00.356Z,7.30
2018-02-13T07:34:00.344Z,5.50
2018-02-13T07:35:00.405Z,2.50
2018-02-13T07:36:00.336Z,2.70
2018-02-13T07:37:00.341Z,2.20
2018-02-13T07:38:00.335Z,2.90
2018-02-13T07:39:00.330Z,3.00
2018-02-13T07:40:00.319Z,1.50
2018-02-13T07:41:00.319Z,1.40
2018-02-13T07:42:00.311Z,1.80
2018-02-13T07:43:00.311Z,2.10
2018-02-13T07:44:00.313Z,8.30
2018-02-13T07:45:00.304Z,8.60
2018-02-13T07:46:00.301Z,7.40
2018-02-13T07:47:00.295Z,5.70
2018-02-13T07:48:00.295Z,4.40
2018-02-13T07:49:00.284Z,3.40
2018-02-13T07:50:00.279Z,4.50
2018-02-13T07:51:00.279Z,4.10
2018-02-13T07:52:00.275Z,3.90
2018-02-13T07:53:00.273Z,5.90
2018-02-13T07:54:00.263Z,3.30
2018-02-13T07:55:00.257Z,2.40
2018-02-13T07:56:00.260Z,2.10
2018-02-13T07:57:00.255Z,2.30
2018-02-13T07:58:00.246Z,1.50
2018-02-13T07:59:00.241Z,1.70
2018-02-13T08:00:00.242Z,1.50
2018-02-13T08:01:00.235Z,1.90
2018-02-13T08:02:00.236Z,8.10
2018-02-13T08:03:00.224Z,9.20
2018-02-13T08:04:00.220Z,8.40
2018-02-13T08:05:00.222Z,6.70
2018-02-13T08:06:00.213Z,4.30
2018-02-13T08:07:00.208Z,3.60
2018-02-13T08:08:00.208Z,3.90
2018-02-13T08:09:00.201Z,2.60
2018-02-13T08:10:00.200Z,2.00
2018-02-13T08:11:00.201Z,2.10
2018-02-13T08:12:00.190Z,1.60
2018-02-13T08:13:00.191Z,1.10
2018-02-13T08:14:00.186Z,1.90
2018-02-13T08:15:00.196Z,1.50
2018-02-13T08:16:00.178Z,1.20
2018-02-13T08:17:00.179Z,1.20
2018-02-13T08:18:00.168Z,1.40
2018-02-13T08:19:00.168Z,1.50
2018-02-13T08:20:00.159Z,1.30
2018-02-13T08:21:00.154Z,1.90
2018-02-13T08:22:00.156Z,1.30
2018-02-13T08:23:00.146Z,1.10
2018-02-13T08:24:00.143Z,1.30
2018-02-13T08:25:00.144Z,1.80
2018-02-13T08:26:00.141Z,1.90
2018-02-13T08:27:00.131Z,1.20
2018-02-13T08:28:00.135Z,1.10
2018-02-13T08:29:00.127Z,1.40
2018-02-13T08:30:00.128Z,1.20
2018-02-13T08:31:00.119Z,1.30
2018-02-13T08:32:00.118Z,1.50
2018-02-13T08:33:00.114Z,1.30
2018-02-13T08:34:00.111Z,1.70
2018-02-13T08:35:00.109Z,1.40
2018-02-13T08:36:00.114Z,1.70
2018-02-13T08:37:00.103Z,2.80
2018-02-13T08:38:00.102Z,1.70
2018-02-13T08:39:00.097Z,2.30
2018-02-13T08:40:00.097Z,2.10
2018-02-13T08:41:00.098Z,1.80
2018-02-13T08:42:00.090Z,2.70
2018-02-13T08:43:00.094Z,1.90
2018-02-13T08:44:00.084Z,1.90
2018-02-13T08:45:00.106Z,1.90
2018-02-13T08:46:00.088Z,1.20
2018-02-13T08:47:00.079Z,1.10
2018-02-13T08:48:00.080Z,1.30
2018-02-13T08:49:00.082Z,2.60
2018-02-13T08:50:00.086Z,1.40
2018-02-13T08:51:00.073Z,1.50
2018-02-13T08:52:00.067Z,1.60
2018-02-13T08:53:00.066Z,3.20
2018-02-13T08:54:00.066Z,2.70
2018-02-13T08:55:00.063Z,3.20
2018-02-13T08:56:00.070Z,3.60
2018-02-13T08:57:00.067Z,2.20
2018-02-13T08:58:00.057Z,1.70
2018-02-13T08:59:00.063Z,1.70
2018-02-13T09:00:00.057Z,1.60
2018-02-13T09:01:00.072Z,1.50
2018-02-13T09:02:00.059Z,1.20
2018-02-13T09:03:00.057Z,1.20
2018-02-13T09:04:00.054Z,1.10
2018-02-13T09:05:00.053Z,1.40
2018-02-13T09:06:00.060Z,1.30
2018-02-13T09:07:00.050Z,1.90
2018-02-13T09:08:00.048Z,1.50
2018-02-13T09:09:00.047Z,1.50
2018-02-13T09:10:00.040Z,1.30
2018-02-13T09:11:00.042Z,1.70
2018-02-13T09:12:00.042Z,1.20
2018-02-13T09:13:00.040Z,1.70
2018-02-13T09:14:00.039Z,1.70
2018-02-13T09:15:00.033Z,1.20
2018-02-13T09:16:00.034Z,1.40
2018-02-13T09:17:00.029Z,1.30
2018-02-13T09:18:00.033Z,1.40
2018-02-13T09:19:00.029Z,1.80
2018-02-13T09:20:00.033Z,1.60
2018-02-13T09:21:00.033Z,1.50
2018-02-13T09:22:00.038Z,1.40
2018-02-13T09:23:00.036Z,1.80
2018-02-13T09:24:00.025Z,3.20
2018-02-13T09:25:00.019Z,1.80
2018-02-13T09:26:00.023Z,1.30
2018-02-13T09:27:00.027Z,2.00
2018-02-13T09:28:00.032Z,1.40
2018-02-13T09:29:00.022Z,1.30
2018-02-13T09:30:00.023Z,1.20
2018-02-13T09:31:00.015Z,1.50
2018-02-13T09:32:00.013Z,1.30
2018-02-13T09:33:00.016Z,1.20
2018-02-13T09:34:00.017Z,1.10
2018-02-13T09:35:00.012Z,1.30
2018-02-13T09:36:00.010Z,1.30
2018-02-13T09:37:00.021Z,1.30
2018-02-13T09:38:00.010Z,2.40
2018-02-13T09:39:00.008Z,1.30
2018-02-13T09:40:00.013Z,1.10
2018-02-13T09:41:00.010Z,2.80
2018-02-13T09:42:00.008Z,1.50
2018-02-13T09:43:00.018Z,1.40
2018-02-13T09:44:00.010Z,3.40
2018-02-13T09:45:00.011Z,1.50
2018-02-13T09:46:00.010Z,1.20
2018-02-13T09:47:00.011Z,1.50
2018-02-13T09:48:00.005Z,1.40
2018-02-13T09:49:00.008Z,1.60
2018-02-13T09:50:00.001Z,1.70
2018-02-13T09:51:00.000Z,2.20
2018-02-13T09:52:00.008Z,2.10
2018-02-13T09:53:00.012Z,1.70
2018-02-13T09:54:00.006Z,1.40
2018-02-13T09:55:00.002Z,1.90
2018-02-13T09:56:00.021Z,2.00
2018-02-13T09:57:00.009Z,1.50
2018-02-13T09:58:00.004Z,2.20
2018-02-13T09:59:00.015Z,1.70
2018-02-13T10:00:00.004Z,1.90
2018-02-13T10:01:00.003Z,1.90
2018-02-13T10:02:00.003Z,2.10
2018-02-13T10:03:00.001Z,2.10
2018-02-13T10:04:00.002Z,1.90
2018-02-13T10:05:00.011Z,1.70
2018-02-13T10:06:00.011Z,1.50
2018-02-13T10:07:00.009Z,1.30
2018-02-13T10:08:00.012Z,1.60
2018-02-13T10:09:00.013Z,1.40
2018-02-13T10:10:00.012Z,1.60
2018-02-13T10:11:00.011Z,1.50
2018-02-13T10:12:00.009Z,1.80
2018-02-13T10:13:00.007Z,1.70
2018-02-13T10:14:00.013Z,1.60
2018-02-13T10:15:00.012Z,2.00
2018-02-13T10:16:00.014Z,1.20
2018-02-13T10:17:00.019Z,2.30
2018-02-13T10:18:00.025Z,1.30
2018-02-13T10:19:00.015Z,1.60
2018-02-13T10:20:00.026Z,1.70
2018-02-13T10:21:00.016Z,1.50
2018-02-13T10:22:00.025Z,1.20
2018-02-13T10:23:00.023Z,1.20
2018-02-13T10:24:00.059Z,1.30
2018-02-13T10:25:00.039Z,1.40
2018-02-13T10:26:00.030Z,2.10
2018-02-13T10:27:00.035Z,2.30
2018-02-13T10:28:00.032Z,1.80
2018-02-13T10:29:00.028Z,1.30
2018-02-13T10:30:00.043Z,1.30
2018-02-13T10:31:00.029Z,1.30
2018-02-13T10:32:00.081Z,1.90
2018-02-13T10:33:00.043Z,1.20
2018-02-13T10:34:00.033Z,1.50
2018-02-13T10:35:00.046Z,1.70
2018-02-13T10:36:00.037Z,2.50
2018-02-13T10:37:00.051Z,1.30
2018-02-13T10:38:00.055Z,1.50
2018-02-13T10:39:00.043Z,1.30
2018-02-13T10:40:00.064Z,1.60
2018-02-13T10:41:00.067Z,2.70
2018-02-13T10:42:00.049Z,1.90
2018-02-13T10:43:00.056Z,1.50
2018-02-13T10:44:00.053Z,2.40
2018-02-13T10:45:00.070Z,3.60
2018-02-13T10:46:00.066Z,2.00
2018-02-13T10:47:00.066Z,1.80
2018-02-13T10:48:00.095Z,2.10
2018-02-13T10:49:00.071Z,1.40
2018-02-13T10:50:00.072Z,1.80
2018-02-13T10:51:00.069Z,1.90
2018-02-13T10:52:00.077Z,2.00
2018-02-13T10:53:00.075Z,1.50
2018-02-13T10:54:00.082Z,4.50
2018-02-13T10:55:00.086Z,1.60
2018-02-13T10:56:00.083Z,1.90
2018-02-13T10:57:00.086Z,1.70
2018-02-13T10:58:00.087Z,2.80
2018-02-13T10:59:00.095Z,1.50
2018-02-13T11:00:00.101Z,2.00
2018-02-13T11:01:00.101Z,2.30
2018-02-13T11:02:00.104Z,1.60
2018-02-13T11:03:00.107Z,1.60
2018-02-13T11:04:00.109Z,1.30
2018-02-13T11:05:00.115Z,1.60
2018-02-13T11:06:00.109Z,1.50
2018-02-13T11:07:00.118Z,1.60
2018-02-13T11:08:00.114Z,1.30
2018-02-13T11:09:00.118Z,1.40
2018-02-13T11:10:00.121Z,1.70
2018-02-13T11:11:00.122Z,1.70
2018-02-13T11:12:00.131Z,3.40
2018-02-13T11:13:00.134Z,1.70
2018-02-13T11:14:00.133Z,2.90
2018-02-13T11:15:00.138Z,2.00
2018-02-13T11:16:00.144Z,2.50
2018-02-13T11:17:00.146Z,1.50
2018-02-13T11:18:00.148Z,1.50
2018-02-13T11:19:00.210Z,1.70
2018-02-13T11:20:00.148Z,1.70
2018-02-13T11:21:00.152Z,1.60
2018-02-13T11:22:00.161Z,2.50
2018-02-13T11:23:00.166Z,3.00
2018-02-13T11:24:00.167Z,2.20
2018-02-13T11:25:00.163Z,1.60
2018-02-13T11:26:00.173Z,1.60
2018-02-13T11:27:00.176Z,2.00
2018-02-13T11:28:00.181Z,1.90
2018-02-13T11:29:00.182Z,1.90
2018-02-13T11:30:00.181Z,3.00
2018-02-13T11:31:00.189Z,2.50
2018-02-13T11:32:00.186Z,2.60
2018-02-13T11:33:00.196Z,2.90
2018-02-13T11:34:00.201Z,1.60
2018-02-13T11:35:00.203Z,3.60
2018-02-13T11:36:00.205Z,1.90
2018-02-13T11:37:00.205Z,2.50
2018-02-13T11:38:00.213Z,2.50
2018-02-13T11:39:00.211Z,2.10
2018-02-13T11:40:00.222Z,1.80
2018-02-13T11:41:00.226Z,1.50
2018-02-13T11:42:00.225Z,1.60
2018-02-13T11:43:00.235Z,2.50
2018-02-13T11:44:00.236Z,2.10
2018-02-13T11:45:00.236Z,2.80
2018-02-13T11:46:00.241Z,1.70
2018-02-13T11:47:00.248Z,1.40
2018-02-13T11:48:00.254Z,2.40
2018-02-13T11:49:00.253Z,1.80
2018-02-13T11:50:00.257Z,8.40
2018-02-13T11:51:00.267Z,1.60
2018-02-13T11:52:00.271Z,1.30
2018-02-13T11:53:00.271Z,1.40
2018-02-13T11:54:00.274Z,1.40
2018-02-13T11:55:00.279Z,2.90
2018-02-13T11:56:00.287Z,2.30
2018-02-13T11:57:00.286Z,2.40
2018-02-13T11:58:00.297Z,3.20
2018-02-13T11:59:00.300Z,1.80
2018-02-13T12:00:00.303Z,3.50
2018-02-13T12:01:00.309Z,1.80
2018-02-13T12:02:00.306Z,1.60
2018-02-13T12:03:00.311Z,1.30
2018-02-13T12:04:00.320Z,1.70
2018-02-13T12:05:00.320Z,1.30
2018-02-13T12:06:00.332Z,1.20
2018-02-13T12:07:00.328Z,1.50
2018-02-13T12:08:00.337Z,1.40
2018-02-13T12:09:00.341Z,1.50
2018-02-13T12:10:00.345Z,1.40
2018-02-13T12:11:00.350Z,1.50
2018-02-13T12:12:00.354Z,1.70
2018-02-13T12:13:00.354Z,2.60
2018-02-13T12:14:00.363Z,2.00
2018-02-13T12:15:00.367Z,1.60
2018-02-13T12:16:00.376Z,1.90
2018-02-13T12:17:00.370Z,1.80
2018-02-13T12:18:00.381Z,1.40
2018-02-13T12:19:00.380Z,1.70
2018-02-13T12:20:00.387Z,2.50
2018-02-13T12:21:00.388Z,1.30
2018-02-13T12:22:00.393Z,1.70
2018-02-13T12:23:00.398Z,1.90
2018-02-13T12:24:00.409Z,1.30
2018-02-13T12:25:00.413Z,2.10
2018-02-13T12:26:00.413Z,1.30
2018-02-13T12:27:00.417Z,1.50
2018-02-13T12:28:00.425Z,2.90
2018-02-13T12:29:00.426Z,1.70
2018-02-13T12:30:00.440Z,1.60
2018-02-13T12:31:00.442Z,2.00
2018-02-13T12:32:00.441Z,1.30
2018-02-13T12:33:00.446Z,1.60
2018-02-13T12:34:00.455Z,1.30
2018-02-13T12:35:00.454Z,1.70
2018-02-13T12:36:00.461Z,1.40
2018-02-13T12:37:00.471Z,1.60
2018-02-13T12:38:00.474Z,1.60
2018-02-13T12:39:00.480Z,1.60
2018-02-13T12:40:00.479Z,1.50
2018-02-13T12:41:00.483Z,2.30
2018-02-13T12:42:00.493Z,1.70
2018-02-13T12:43:00.495Z,1.40
2018-02-13T12:44:00.500Z,1.50
2018-02-13T12:45:00.503Z,1.40
2018-02-13T12:46:00.513Z,1.60
2018-02-13T12:47:00.512Z,1.50
2018-02-13T12:48:00.523Z,1.70
2018-02-13T12:49:00.522Z,2.10
2018-02-13T12:50:00.527Z,1.70
2018-02-13T12:51:00.529Z,1.60
2018-02-13T12:52:00.534Z,1.50
2018-02-13T12:53:00.538Z,1.40
2018-02-13T12:54:00.542Z,1.40
2018-02-13T12:55:00.553Z,1.30
2018-02-13T12:56:00.552Z,1.30
2018-02-13T12:57:00.563Z,1.50
2018-02-13T12:58:00.569Z,1.50
2018-02-13T12:59:00.566Z,1.60
2018-02-13T13:00:00.595Z,1.20
2018-02-13T13:01:00.576Z,1.30
2018-02-13T13:02:00.580Z,1.50
2018-02-13T13:03:00.584Z,1.70
2018-02-13T13:04:00.597Z,2.80
2018-02-13T13:05:00.596Z,2.00
2018-02-13T13:06:00.599Z,1.50
2018-02-13T13:07:00.611Z,1.50
2018-02-13T13:08:00.608Z,1.50
2018-02-13T13:09:00.613Z,1.50
2018-02-13T13:10:00.619Z,2.40
2018-02-13T13:11:00.621Z,1.40
2018-02-13T13:12:00.628Z,1.80
2018-02-13T13:13:00.630Z,2.40
2018-02-13T13:14:00.639Z,1.80
2018-02-13T13:15:00.648Z,1.30
2018-02-13T13:16:00.652Z,2.50
2018-02-13T13:17:00.651Z,3.00
2018-02-13T13:18:00.658Z,1.40